Time;durP1;ratioP1;P1;durP2;ratioP2;P2;SDS_P1;SDS_P2;PMS_P1;PMS_P2;Temp;Humidity;BMP_temperature;BMP_pressure;BME280_temperature;BME280_humidity;BME280_pressure;Samples;Min_cycle;Max_cycle;Signal;HPM_P1;HPM_P2
2022/08/30 00:01:11;;;;;;;5.35;1.50;;;;;;;-140.72;100.00;52429.41;5055609;28;20068;-70
2022/08/30 00:03:44;;;;;;;3.95;1.38;;;;;;;-140.72;100.00;52451.72;5058799;28;20051;-70
2022/08/30 00:06:11;;;;;;;1.80;0.95;;;;;;;-140.72;100.00;52484.19;5054168;28;20021;-68
2022/08/30 00:08:37;;;;;;;4.10;1.50;;;;;;;-140.72;100.00;52467.97;5056564;28;20033;-69
2022/08/30 00:11:05;;;;;;;1.50;0.93;;;;;;;-140.72;100.00;52439.56;5056852;28;20111;-70
2022/08/30 00:13:31;;;;;;;2.38;1.25;;;;;;;-140.72;100.00;52504.50;5062666;28;20175;-70
2022/08/30 00:15:57;;;;;;;1.83;1.10;;;;;;;-140.72;100.00;52470.00;5064962;28;20115;-71
2022/08/30 00:18:23;;;;;;;1.98;1.17;;;;;;;-140.72;100.00;52486.22;5057671;28;20024;-69
2022/08/30 00:20:49;;;;;;;3.50;1.30;;;;;;;-140.72;100.00;52429.41;5067872;28;20445;-69
2022/08/30 00:23:16;;;;;;;2.25;1.33;;;;;;;-140.72;100.00;52494.34;5057038;28;20253;-69
2022/08/30 00:25:43;;;;;;;2.47;1.38;;;;;;;-140.72;100.00;52476.09;5059278;28;20465;-69
2022/08/30 00:28:08;;;;;;;2.88;1.35;;;;;;;-140.72;100.00;52480.16;5065382;28;20036;-69
2022/08/30 00:30:37;;;;;;;1.80;1.48;;;;;;;-140.72;100.00;52463.91;5054561;28;20040;-69
2022/08/30 00:33:03;;;;;;;2.20;1.25;;;;;;;-140.72;100.00;52486.22;5051022;28;20098;-71
2022/08/30 00:35:29;;;;;;;2.03;1.10;;;;;;;-140.72;100.00;52486.22;5055831;28;20033;-70
2022/08/30 00:37:54;;;;;;;3.03;1.20;;;;;;;-140.72;100.00;52536.97;5055496;28;20131;-70
2022/08/30 00:40:20;;;;;;;2.65;1.05;;;;;;;-140.72;100.00;52488.25;5058717;28;20222;-71
2022/08/30 00:42:47;;;;;;;3.55;1.90;;;;;;;-140.72;100.00;52496.38;5057767;28;20421;-70
2022/08/30 00:45:17;;;;;;;1.55;0.88;;;;;;;-140.72;100.00;52480.16;5053684;28;20029;-71
2022/08/30 00:47:43;;;;;;;3.95;1.70;;;;;;;-140.72;100.00;52459.84;5064760;28;20051;-69
2022/08/30 00:50:10;;;;;;;2.75;1.38;;;;;;;-140.72;100.00;52500.44;5054237;28;20052;-71
2022/08/30 00:52:40;;;;;;;3.70;1.60;;;;;;;-140.72;100.00;52459.84;5060475;28;20407;-70
2022/08/30 00:55:06;;;;;;;2.90;1.67;;;;;;;-140.72;100.00;52474.06;5060935;28;20051;-72
2022/08/30 00:57:33;;;;;;;1.88;0.90;;;;;;;-140.72;100.00;52482.16;5065036;28;20150;-70
2022/08/30 00:59:58;;;;;;;1.83;1.30;;;;;;;-140.72;100.00;52496.38;5060190;28;20039;-70
2022/08/30 01:02:26;;;;;;;3.25;1.55;;;;;;;-140.72;100.00;52502.47;5063160;28;20032;-70
2022/08/30 01:04:54;;;;;;;3.10;1.95;;;;;;;-140.72;100.00;52480.16;5061796;28;20031;-70
2022/08/30 01:07:19;;;;;;;3.50;1.52;;;;;;;-140.72;100.00;52504.50;5061621;28;20048;-71
2022/08/30 01:09:45;;;;;;;3.80;1.35;;;;;;;-140.72;100.00;52498.41;5059312;28;20409;-69
2022/08/30 01:12:10;;;;;;;2.17;1.27;;;;;;;-140.72;100.00;52484.19;5055254;28;20484;-69
2022/08/30 01:14:36;;;;;;;4.38;1.98;;;;;;;-140.72;100.00;52476.09;5053058;28;20049;-70
2022/08/30 01:17:03;;;;;;;2.85;1.50;;;;;;;-140.72;100.00;52508.56;5056933;28;20020;-69
2022/08/30 01:19:45;;;;;;;6.43;2.10;;;;;;;-140.72;100.00;52488.25;5059168;28;20038;-71
2022/08/30 01:22:31;;;;;;;4.30;1.67;;;;;;;-140.72;100.00;52510.59;5055161;28;20033;-70
2022/08/30 01:25:00;;;;;;;3.33;1.92;;;;;;;-140.72;100.00;52476.09;5056403;28;20109;-69
2022/08/30 01:27:28;;;;;;;2.15;1.38;;;;;;;-140.72;100.00;52455.78;5065558;28;20487;-69
2022/08/30 01:29:54;;;;;;;3.05;1.83;;;;;;;-140.72;100.00;52474.06;5062931;28;20032;-71
2022/08/30 01:32:23;;;;;;;3.15;1.65;;;;;;;-140.72;100.00;52465.94;5064676;28;20397;-70
2022/08/30 01:34:48;;;;;;;3.80;1.00;;;;;;;-140.72;100.00;52445.66;5068126;28;20033;-69
2022/08/30 01:37:20;;;;;;;3.75;2.08;;;;;;;-140.72;100.00;52480.16;5067155;28;20150;-70
2022/08/30 01:39:46;;;;;;;1.75;1.15;;;;;;;-140.72;100.00;52457.81;5063079;28;20036;-69
2022/08/30 01:42:16;;;;;;;6.45;2.00;;;;;;;-140.72;100.00;52472.03;5064028;28;20028;-70
2022/08/30 01:44:41;;;;;;;3.72;1.60;;;;;;;-140.72;100.00;52492.31;5086091;28;20035;-70
2022/08/30 01:47:07;;;;;;;5.40;1.33;;;;;;;-140.72;100.00;52437.53;5076209;28;20389;-70
2022/08/30 01:49:33;;;;;;;1.58;1.15;;;;;;;-140.72;100.00;52472.03;5078837;28;20024;-69
2022/08/30 01:51:58;;;;;;;3.22;1.23;;;;;;;-140.72;100.00;52472.03;5061146;28;20423;-69
2022/08/30 01:54:24;;;;;;;3.33;1.55;;;;;;;-140.72;100.00;52451.72;5082898;28;20055;-69
2022/08/30 01:56:49;;;;;;;2.00;1.38;;;;;;;-140.72;100.00;52463.91;5085413;28;20027;-71
2022/08/30 01:59:14;;;;;;;1.85;1.17;;;;;;;-140.72;100.00;52467.97;5057716;28;20458;-70
2022/08/30 02:01:41;;;;;;;2.45;1.63;;;;;;;-140.72;100.00;52443.63;5059981;28;20085;-70
2022/08/30 02:04:08;;;;;;;2.85;1.50;;;;;;;-140.72;100.00;52455.78;5071546;28;20035;-69
2022/08/30 02:06:34;;;;;;;2.42;1.25;;;;;;;-140.72;100.00;52484.19;5052675;28;20381;-69
2022/08/30 02:09:01;;;;;;;2.67;1.63;;;;;;;-140.72;100.00;52463.91;5066750;28;20021;-71
2022/08/30 02:11:26;;;;;;;3.33;1.58;;;;;;;-140.72;100.00;52486.22;5070915;28;20040;-70
2022/08/30 02:13:51;;;;;;;7.63;2.20;;;;;;;-140.72;100.00;52488.25;5061118;28;20041;-70
2022/08/30 02:16:21;;;;;;;1.60;1.25;;;;;;;-140.72;100.00;52526.81;5065232;28;20480;-69
2022/08/30 02:18:47;;;;;;;3.08;1.98;;;;;;;-140.72;100.00;52467.97;5036819;28;20029;-69
2022/08/30 02:21:14;;;;;;;3.95;1.70;;;;;;;-140.72;100.00;52467.97;5064983;28;20025;-69
2022/08/30 02:23:39;;;;;;;3.33;1.70;;;;;;;-140.72;100.00;52488.25;5081832;28;20092;-69
2022/08/30 02:26:04;;;;;;;3.20;1.60;;;;;;;-140.72;100.00;52443.63;5068665;28;20112;-69
2022/08/30 02:28:30;;;;;;;3.78;1.83;;;;;;;-140.72;100.00;52459.84;5080976;28;20030;-69
2022/08/30 02:30:55;;;;;;;3.50;1.50;;;;;;;-140.72;100.00;52476.09;5067256;28;20376;-69
2022/08/30 02:33:21;;;;;;;1.77;1.20;;;;;;;-140.72;100.00;52455.78;5063813;28;20141;-69
2022/08/30 02:35:46;;;;;;;3.03;1.95;;;;;;;-140.72;100.00;52461.88;5073780;28;20043;-68
2022/08/30 02:38:12;;;;;;;2.22;1.60;;;;;;;-140.72;100.00;52457.81;5064486;28;20037;-70
2022/08/30 02:40:38;;;;;;;3.63;1.92;;;;;;;-140.72;100.00;52413.19;5067602;28;20020;-70
2022/08/30 02:43:03;;;;;;;4.70;2.60;;;;;;;-140.72;100.00;52492.31;5070500;28;20108;-69
2022/08/30 02:45:29;;;;;;;2.92;1.90;;;;;;;-140.72;100.00;52494.34;5058951;28;20349;-70
2022/08/30 02:47:55;;;;;;;5.05;2.33;;;;;;;-140.72;100.00;52463.91;5056148;28;20024;-71
2022/08/30 02:50:21;;;;;;;3.03;2.28;;;;;;;-140.72;100.00;52474.06;5063656;28;20123;-70
2022/08/30 02:52:46;;;;;;;3.45;2.17;;;;;;;-140.72;100.00;52488.25;5051667;28;20516;-70
2022/08/30 02:55:12;;;;;;;4.25;2.10;;;;;;;-140.72;100.00;52465.94;5050409;28;20112;-71
2022/08/30 02:57:37;;;;;;;5.47;2.40;;;;;;;-140.72;100.00;52494.34;5080909;28;20082;-71
2022/08/30 03:00:08;;;;;;;3.72;2.42;;;;;;;-140.72;100.00;52494.34;5071301;28;20035;-69
2022/08/30 03:02:34;;;;;;;5.03;2.22;;;;;;;-140.72;100.00;52467.97;5079590;28;20021;-69
2022/08/30 03:04:59;;;;;;;3.33;2.25;;;;;;;-140.72;100.00;52476.09;5053704;28;20075;-69
2022/08/30 03:07:25;;;;;;;3.20;2.15;;;;;;;-140.72;100.00;52502.47;5091164;28;20039;-70
2022/08/30 03:09:51;;;;;;;6.10;2.85;;;;;;;-140.72;100.00;52496.38;5076840;28;20514;-70
2022/08/30 03:12:17;;;;;;;3.17;2.38;;;;;;;-140.72;100.00;52504.50;5076583;28;20040;-70
2022/08/30 03:14:43;;;;;;;4.57;2.70;;;;;;;-140.72;100.00;52459.84;5070425;28;20089;-69
2022/08/30 03:17:08;;;;;;;4.50;2.83;;;;;;;-140.72;100.00;52465.94;5071355;28;20107;-70
2022/08/30 03:19:35;;;;;;;6.05;2.85;;;;;;;-140.72;100.00;52520.72;5070623;28;20031;-70
2022/08/30 03:22:02;;;;;;;5.18;3.40;;;;;;;-140.72;100.00;52500.44;5057824;28;20025;-69
2022/08/30 03:24:27;;;;;;;3.75;2.42;;;;;;;-140.72;100.00;52447.69;5066947;28;20457;-69
2022/08/30 03:26:53;;;;;;;3.50;2.38;;;;;;;-140.72;100.00;52504.50;5070487;28;20138;-70
2022/08/30 03:29:18;;;;;;;4.40;2.60;;;;;;;-140.72;100.00;52467.97;5066884;28;20091;-70
2022/08/30 03:31:43;;;;;;;3.47;2.50;;;;;;;-140.72;100.00;52492.31;5053437;28;20032;-69
2022/08/30 03:34:09;;;;;;;2.50;2.20;;;;;;;-140.72;100.00;52488.25;5070505;28;20032;-71
2022/08/30 03:36:38;;;;;;;4.05;2.55;;;;;;;-140.72;100.00;52480.16;5083132;28;20105;-70
2022/08/30 03:39:05;;;;;;;5.18;3.08;;;;;;;-140.72;100.00;52496.38;5060643;28;20029;-69
2022/08/30 03:41:31;;;;;;;4.90;2.85;;;;;;;-140.72;100.00;52474.06;5080783;28;20020;-70
2022/08/30 03:43:57;;;;;;;3.42;2.60;;;;;;;-140.72;100.00;52461.88;5069365;28;20047;-71
2022/08/30 03:46:23;;;;;;;5.43;2.80;;;;;;;-140.72;100.00;52467.97;5087454;28;20028;-70
2022/08/30 03:48:48;;;;;;;3.97;2.55;;;;;;;-140.72;100.00;52508.56;5068496;28;20032;-69
2022/08/30 03:51:14;;;;;;;4.78;2.85;;;;;;;-140.72;100.00;52478.13;5082008;28;20452;-70
2022/08/30 03:53:39;;;;;;;4.28;3.28;;;;;;;-140.72;100.00;52490.28;5089348;28;20054;-70
2022/08/30 03:56:04;;;;;;;4.05;3.08;;;;;;;-140.72;100.00;52496.38;5058354;28;20063;-70
2022/08/30 03:58:30;;;;;;;4.32;2.95;;;;;;;-140.72;100.00;52500.44;5076352;28;20429;-71
2022/08/30 04:00:56;;;;;;;5.50;3.40;;;;;;;-140.72;100.00;52474.06;5090138;28;20031;-70
2022/08/30 04:03:24;;;;;;;4.68;2.53;;;;;;;-140.72;100.00;52496.38;5089535;28;20020;-71
2022/08/30 04:05:52;;;;;;;4.82;3.47;;;;;;;-140.72;100.00;52528.84;5088886;28;20052;-69
2022/08/30 04:08:17;;;;;;;4.18;3.25;;;;;;;-140.72;100.00;52474.06;5081576;28;20096;-69
2022/08/30 04:10:43;;;;;;;4.28;2.75;;;;;;;-140.72;100.00;52520.72;5082587;28;20486;-70
2022/08/30 04:13:08;;;;;;;6.47;3.80;;;;;;;-140.72;100.00;52516.66;5087538;28;20103;-71
2022/08/30 04:15:33;;;;;;;4.15;3.00;;;;;;;-140.72;100.00;52506.53;5088947;28;20144;-69
2022/08/30 04:17:59;;;;;;;5.38;3.50;;;;;;;-140.72;100.00;52506.53;5088838;28;20052;-70
2022/08/30 04:20:26;;;;;;;5.63;3.58;;;;;;;-140.72;100.00;52543.03;5062158;28;20036;-70
2022/08/30 04:22:51;;;;;;;7.45;3.78;;;;;;;-140.72;100.00;52516.66;5082005;28;20016;-70
2022/08/30 04:25:17;;;;;;;4.57;3.47;;;;;;;-140.72;100.00;52498.41;5081309;28;20042;-70
2022/08/30 04:27:44;;;;;;;4.75;3.15;;;;;;;-140.72;100.00;52512.59;5088276;28;20031;-71
2022/08/30 04:30:11;;;;;;;4.57;3.47;;;;;;;-140.72;100.00;52482.16;5063936;28;20036;-70
2022/08/30 04:32:37;;;;;;;4.97;3.42;;;;;;;-140.72;100.00;52484.19;5078703;28;20028;-69
2022/08/30 04:35:06;;;;;;;7.50;4.30;;;;;;;-140.72;100.00;52508.56;5088997;28;20681;-69
2022/08/30 04:37:31;;;;;;;5.10;3.97;;;;;;;-140.72;100.00;52494.34;5078643;28;20032;-70
2022/08/30 04:39:59;;;;;;;5.43;3.88;;;;;;;-140.72;100.00;52484.19;5051470;28;20017;-68
2022/08/30 04:42:32;;;;;;;5.05;3.47;;;;;;;-140.72;100.00;52522.75;5060788;28;20094;-72
2022/08/30 04:45:01;;;;;;;4.50;3.25;;;;;;;-140.72;100.00;52500.44;5069637;28;20066;-73
2022/08/30 04:47:26;;;;;;;3.72;2.63;;;;;;;-140.72;100.00;52482.16;5075944;28;20024;-71
2022/08/30 04:49:52;;;;;;;5.28;4.35;;;;;;;-140.72;100.00;52520.72;5068135;28;20059;-72
2022/08/30 04:52:18;;;;;;;5.80;3.67;;;;;;;-140.72;100.00;52504.50;5056751;28;20029;-73
2022/08/30 04:54:43;;;;;;;5.95;3.97;;;;;;;-140.72;100.00;52524.78;5051101;28;20334;-72
2022/08/30 04:57:10;;;;;;;6.40;4.00;;;;;;;-140.72;100.00;52494.34;5078316;28;20024;-73
2022/08/30 04:59:37;;;;;;;4.93;3.55;;;;;;;-140.72;100.00;52528.84;5083556;28;20032;-72
2022/08/30 05:02:03;;;;;;;4.75;3.22;;;;;;;-140.72;100.00;52543.03;5057938;28;20050;-72
2022/08/30 05:04:28;;;;;;;5.18;3.60;;;;;;;-140.72;100.00;52516.66;5078881;28;20104;-74
2022/08/30 05:06:53;;;;;;;4.45;3.63;;;;;;;-140.72;100.00;52500.44;5067566;28;20145;-70
2022/08/30 05:09:20;;;;;;;6.43;3.97;;;;;;;-140.72;100.00;52520.72;5084123;28;20028;-71
2022/08/30 05:11:46;;;;;;;5.03;3.90;;;;;;;-140.72;100.00;52557.25;5069514;28;20025;-72
2022/08/30 05:14:11;;;;;;;8.05;4.40;;;;;;;-140.72;100.00;52524.78;5068400;28;20052;-71
2022/08/30 05:16:37;;;;;;;6.75;3.92;;;;;;;-140.72;100.00;52500.44;5057004;28;20142;-72
2022/08/30 05:19:03;;;;;;;6.18;3.72;;;;;;;-140.72;100.00;52530.88;5055386;28;20081;-74
2022/08/30 05:21:28;;;;;;;8.98;4.03;;;;;;;-140.72;100.00;52504.50;5066163;28;20031;-72
2022/08/30 05:23:56;;;;;;;6.28;3.95;;;;;;;-140.72;100.00;52494.34;5055186;28;20028;-72
2022/08/30 05:26:28;;;;;;;4.90;3.65;;;;;;;-140.72;100.00;52490.28;5062315;28;20488;-72
2022/08/30 05:28:54;;;;;;;5.57;4.10;;;;;;;-140.72;100.00;52551.16;5066489;28;20017;-73
2022/08/30 05:31:26;;;;;;;8.82;5.70;;;;;;;-140.72;100.00;52512.59;5068299;28;20024;-69
2022/08/30 05:33:53;;;;;;;5.70;4.47;;;;;;;-140.72;100.00;52536.97;5061889;28;20071;-69
2022/08/30 05:36:20;;;;;;;6.63;4.47;;;;;;;-140.72;100.00;52506.53;5047426;28;20032;-70
2022/08/30 05:38:46;;;;;;;5.72;4.40;;;;;;;-140.72;100.00;52516.66;5056848;28;20029;-69
2022/08/30 05:41:12;;;;;;;5.32;4.32;;;;;;;-140.72;100.00;52522.75;5068673;28;20028;-68
2022/08/30 05:43:38;;;;;;;6.07;4.38;;;;;;;-140.72;100.00;52496.38;5061170;28;20059;-68
2022/08/30 05:46:12;;;;;;;5.45;4.30;;;;;;;-140.72;100.00;52498.41;5062388;28;20024;-69
2022/08/30 05:48:39;;;;;;;4.00;3.15;;;;;;;-140.72;100.00;52502.47;5058166;28;20029;-68
2022/08/30 05:51:17;;;;;;;6.18;4.50;;;;;;;-140.72;100.00;52482.16;5051751;28;20943;-69
2022/08/30 05:53:44;;;;;;;5.70;3.90;;;;;;;-140.72;100.00;52480.16;5049079;28;20021;-68
2022/08/30 05:56:12;;;;;;;6.07;4.40;;;;;;;-140.72;100.00;52516.66;5060097;28;20043;-69
2022/08/30 05:58:39;;;;;;;5.65;3.45;;;;;;;-140.72;100.00;52518.69;5064633;28;20066;-69
2022/08/30 06:01:05;;;;;;;8.95;3.90;;;;;;;-140.72;100.00;52514.63;5057062;28;20040;-69
2022/08/30 06:03:31;;;;;;;4.20;3.05;;;;;;;-140.72;100.00;52555.22;5060597;28;20071;-69
2022/08/30 06:05:58;;;;;;;5.85;3.83;;;;;;;-140.72;100.00;52486.22;5061440;28;20032;-69
2022/08/30 06:08:23;;;;;;;6.10;4.53;;;;;;;-140.72;100.00;52541.03;5061433;28;20032;-68
2022/08/30 06:10:49;;;;;;;5.53;3.33;;;;;;;-140.72;100.00;52526.81;5064169;28;20425;-68
2022/08/30 06:13:14;;;;;;;5.32;4.15;;;;;;;-140.72;100.00;52472.03;5069923;28;20028;-70
2022/08/30 06:15:43;;;;;;;5.35;3.53;;;;;;;-140.72;100.00;52478.13;5075204;28;20038;-69
2022/08/30 06:18:09;;;;;;;4.40;3.60;;;;;;;-140.72;100.00;52490.28;5075429;28;20023;-69
2022/08/30 06:20:40;;;;;;;5.60;4.05;;;;;;;-140.72;100.00;52496.38;5067534;28;20457;-70
2022/08/30 06:23:05;;;;;;;4.60;3.10;;;;;;;-140.72;100.00;52478.13;5074186;28;20024;-69
2022/08/30 06:25:30;;;;;;;5.18;3.70;;;;;;;-140.72;100.00;52488.25;5073872;28;20032;-69
2022/08/30 06:27:56;;;;;;;4.85;3.47;;;;;;;-140.72;100.00;52520.72;5077231;28;20084;-70
2022/08/30 06:30:21;;;;;;;7.07;3.30;;;;;;;-140.72;100.00;52508.56;5075177;28;20024;-69
2022/08/30 06:32:47;;;;;;;3.72;2.85;;;;;;;-140.72;100.00;52465.94;5091624;28;20118;-68
2022/08/30 06:35:12;;;;;;;5.47;4.18;;;;;;;-140.72;100.00;52496.38;5091480;28;20361;-69
2022/08/30 06:37:37;;;;;;;4.45;3.00;;;;;;;-140.72;100.00;52512.59;5091606;28;20032;-69
2022/08/30 06:40:04;;;;;;;4.88;2.83;;;;;;;-140.72;100.00;52488.25;5084534;28;20020;-69
2022/08/30 06:42:32;;;;;;;4.75;3.25;;;;;;;-140.72;100.00;52472.03;5083250;28;20072;-70
2022/08/30 06:45:01;;;;;;;4.70;3.05;;;;;;;-140.72;100.00;52467.97;5090557;28;20020;-69
2022/08/30 06:47:27;;;;;;;3.87;2.80;;;;;;;-140.72;100.00;52496.38;5064438;28;20465;-70
2022/08/30 06:49:58;;;;;;;7.65;3.33;;;;;;;-140.72;100.00;52480.16;5065156;28;20254;-68
2022/08/30 06:52:24;;;;;;;3.58;2.83;;;;;;;-140.72;100.00;52443.63;5077716;28;20116;-68
2022/08/30 06:54:49;;;;;;;4.85;3.88;;;;;;;-140.72;100.00;52500.44;5064025;28;20079;-69
2022/08/30 06:57:15;;;;;;;5.88;2.97;;;;;;;-140.72;93.09;52455.78;5062455;28;20276;-69
2022/08/30 06:59:40;;;;;;;6.97;3.15;;;;;;;-140.72;83.09;52470.00;5073012;28;20029;-69
2022/08/30 07:02:06;;;;;;;5.53;3.03;;;;;;;-140.72;76.19;52437.53;5062348;28;20062;-70
2022/08/30 07:04:33;;;;;;;3.03;2.15;;;;;;;-140.72;65.34;52502.47;5072084;28;20032;-70
2022/08/30 07:06:58;;;;;;;3.97;2.15;;;;;;;-140.72;54.94;52482.16;5074885;28;20031;-70
2022/08/30 07:09:24;;;;;;;2.90;2.03;;;;;;;-140.72;44.43;52467.97;5077118;28;20020;-69
2022/08/30 07:11:50;;;;;;;3.03;1.88;;;;;;;-140.72;38.55;52447.69;5080718;28;20134;-69
2022/08/30 07:14:16;;;;;;;3.13;2.00;;;;;;;-140.72;23.82;52423.31;5067337;28;20081;-70
2022/08/30 07:16:42;;;;;;;2.53;1.60;;;;;;;-140.72;20.69;52415.22;5084852;28;20036;-68
2022/08/30 07:19:08;;;;;;;2.60;1.73;;;;;;;-140.72;15.30;52445.66;5083767;28;20016;-69
2022/08/30 07:21:36;;;;;;;3.05;2.17;;;;;;;-140.72;12.83;52419.28;5083658;28;20032;-69
2022/08/30 07:24:03;;;;;;;4.07;2.28;;;;;;;-140.72;12.55;52445.66;5080357;28;20024;-70
2022/08/30 07:26:35;;;;;;;3.17;1.92;;;;;;;-140.72;10.61;52447.69;5079361;28;20028;-69
2022/08/30 07:29:01;;;;;;;6.95;1.80;;;;;;;-140.72;7.28;52459.84;5081113;28;20031;-69
2022/08/30 07:31:27;;;;;;;2.30;1.63;;;;;;;-140.72;5.09;52390.84;5085761;28;20063;-69
2022/08/30 07:33:53;;;;;;;2.30;1.88;;;;;;;-140.72;4.52;52435.50;5078263;28;20069;-70
2022/08/30 07:36:20;;;;;;;5.63;1.60;;;;;;;-140.72;0.00;52445.66;5074659;28;20028;-69
2022/08/30 07:38:47;;;;;;;3.72;1.75;;;;;;;-140.72;0.00;52437.53;5066078;28;20103;-68
2022/08/30 07:41:22;;;;;;;2.00;1.25;;;;;;;-140.72;0.00;52394.91;5076040;28;20106;-70
2022/08/30 07:43:47;;;;;;;2.00;1.27;;;;;;;-140.72;0.00;52403.03;5080806;28;20073;-68
2022/08/30 07:46:13;;;;;;;1.52;0.70;;;;;;;-140.72;0.00;52415.22;5083138;28;20028;-69
2022/08/30 07:48:39;;;;;;;1.77;1.10;;;;;;;-140.72;0.00;52407.09;5079952;28;20020;-69
2022/08/30 07:51:09;;;;;;;2.10;1.25;;;;;;;-140.72;0.00;52415.22;5089305;28;20020;-69
2022/08/30 07:53:34;;;;;;;1.38;0.80;;;;;;;-140.72;0.00;52415.22;5090666;28;20051;-68
2022/08/30 07:56:00;;;;;;;3.17;1.20;;;;;;;-140.72;0.00;52429.41;5063393;28;20033;-69
2022/08/30 07:58:25;;;;;;;0.98;0.63;;;;;;;-140.72;0.00;52421.28;5067524;28;20033;-69
2022/08/30 08:00:51;;;;;;;1.30;0.77;;;;;;;-140.72;0.00;52398.97;5065358;28;20108;-68
2022/08/30 08:03:16;;;;;;;1.85;0.80;;;;;;;-140.72;0.00;52411.16;5055801;28;20081;-70
2022/08/30 08:05:44;;;;;;;1.90;0.75;;;;;;;-140.72;0.00;52413.19;5056863;28;20032;-69
2022/08/30 08:08:11;;;;;;;3.47;1.30;;;;;;;-140.72;0.00;52366.50;5068727;28;20028;-69
2022/08/30 08:10:39;;;;;;;1.27;0.77;;;;;;;-140.72;0.00;52411.16;5069350;28;20082;-70
2022/08/30 08:13:05;;;;;;;1.98;0.82;;;;;;;-140.72;0.00;52358.41;5068815;28;20036;-69
2022/08/30 08:15:30;;;;;;;2.55;0.88;;;;;;;-140.72;0.00;52354.34;5069872;28;20376;-68
2022/08/30 08:17:56;;;;;;;2.03;0.77;;;;;;;-140.72;0.00;52374.63;5089580;28;20460;-69
2022/08/30 08:20:21;;;;;;;1.15;0.60;;;;;;;-140.72;0.00;52382.75;5073258;28;20036;-69
2022/08/30 08:22:47;;;;;;;1.60;0.68;;;;;;;-140.72;0.00;52362.44;5058462;28;20024;-70
2022/08/30 08:25:13;;;;;;;1.00;0.70;;;;;;;-140.72;0.00;52346.22;5056451;28;20162;-69
2022/08/30 08:27:39;;;;;;;1.10;0.73;;;;;;;-140.72;0.00;52360.44;5073184;28;20025;-69
2022/08/30 08:30:05;;;;;;;2.17;0.73;;;;;;;-140.72;0.00;52356.38;5060222;28;20491;-70
2022/08/30 08:32:30;;;;;;;1.13;0.63;;;;;;;-140.72;0.00;52336.06;5068879;28;20035;-69
2022/08/30 08:34:56;;;;;;;1.63;0.60;;;;;;;-140.72;0.00;52338.09;5056556;28;20040;-70
2022/08/30 08:37:21;;;;;;;1.35;0.65;;;;;;;-140.72;0.00;52354.34;5069543;28;20029;-67
2022/08/30 08:39:47;;;;;;;1.65;0.50;;;;;;;-140.72;0.00;52297.53;5072307;28;20424;-70
2022/08/30 08:42:28;;;;;;;1.55;0.77;;;;;;;-140.72;0.00;52299.56;5053292;28;20025;-70
2022/08/30 08:45:07;;;;;;;1.10;0.40;;;;;;;-140.72;0.00;52281.28;5056002;28;20025;-70
2022/08/30 08:47:40;;;;;;;3.97;0.68;;;;;;;-140.72;0.00;52303.59;5061951;28;20537;-70
2022/08/30 08:50:19;;;;;;;1.00;0.57;;;;;;;-140.72;0.00;52297.53;5064386;28;20482;-68
2022/08/30 08:55:51;;;;;;;0.90;0.47;;;;;;;-140.72;0.00;52293.47;5068037;28;20397;-68
2022/08/30 08:58:25;;;;;;;1.65;0.73;;;;;;;-140.72;0.00;52236.66;5063255;28;20059;-70
2022/08/30 09:00:52;;;;;;;1.33;0.40;;;;;;;-140.72;0.00;52273.19;5058788;28;20055;-70
2022/08/30 09:03:20;;;;;;;2.45;0.50;;;;;;;-140.72;0.00;52265.06;5065142;28;20039;-69
2022/08/30 09:05:47;;;;;;;1.48;0.60;;;;;;;-140.72;0.00;52232.59;5064934;28;20054;-69
2022/08/30 09:08:16;;;;;;;0.90;0.30;;;;;;;-140.72;0.00;52212.31;5058439;28;20033;-70
2022/08/30 09:11:15;;;;;;;1.98;0.60;;;;;;;-140.72;0.00;52177.81;5065315;28;20070;-69
2022/08/30 09:13:41;;;;;;;1.52;0.50;;;;;;;-140.72;0.00;52187.97;5061198;28;20102;-69
2022/08/30 09:16:06;;;;;;;4.90;0.82;;;;;;;-140.72;0.00;52177.81;5062444;28;20041;-69
2022/08/30 09:18:44;;;;;;;0.75;0.20;;;;;;;-140.72;0.00;52230.56;5067193;28;20033;-69
2022/08/30 09:21:10;;;;;;;2.47;0.73;;;;;;;-140.72;0.00;52135.19;5059326;28;20403;-69
2022/08/30 09:23:45;;;;;;;1.52;0.68;;;;;;;-140.72;0.00;52167.66;5063141;28;20035;-69
2022/08/30 09:26:12;;;;;;;1.65;0.60;;;;;;;-140.72;0.00;52165.63;5056142;28;20131;-70
2022/08/30 09:28:47;;;;;;;1.38;0.43;;;;;;;-140.72;0.00;52127.09;5067110;28;20389;-69
2022/08/30 09:31:27;;;;;;;0.90;0.40;;;;;;;-140.72;0.00;52098.69;5072256;28;20491;-71
2022/08/30 09:34:04;;;;;;;0.80;0.38;;;;;;;-140.72;0.00;52118.97;5059512;28;20385;-69
2022/08/30 09:36:50;;;;;;;1.13;0.40;;;;;;;-140.72;0.00;52108.81;5059753;28;20551;-70
2022/08/30 09:39:25;;;;;;;1.02;0.45;;;;;;;-140.72;0.00;52102.75;5061708;28;20037;-69
2022/08/30 09:41:50;;;;;;;0.80;0.43;;;;;;;-140.72;0.00;52098.69;5056794;28;20384;-69
2022/08/30 09:44:21;;;;;;;2.30;0.30;;;;;;;-140.72;0.00;52114.91;5068227;28;20043;-68
2022/08/30 09:46:50;;;;;;;0.93;0.38;;;;;;;-140.72;0.00;52116.94;5060072;28;20032;-69
2022/08/30 09:49:30;;;;;;;1.23;0.40;;;;;;;-140.72;0.00;52110.84;5060490;28;20477;-67
2022/08/30 09:52:15;;;;;;;0.77;0.50;;;;;;;-140.72;0.00;52102.75;5060762;28;20115;-68
2022/08/30 09:54:47;;;;;;;0.77;0.40;;;;;;;-140.72;0.00;52104.75;5065294;28;20404;-69
2022/08/30 09:57:28;;;;;;;1.20;0.50;;;;;;;-140.72;0.00;52094.63;5062785;28;20021;-68
2022/08/30 10:00:04;;;;;;;0.80;0.30;;;;;;;-140.72;0.00;52074.34;5065069;28;20029;-68
2022/08/30 10:02:54;;;;;;;0.75;0.22;;;;;;;-140.72;0.00;52092.59;5061897;28;20576;-69
2022/08/30 10:05:57;;;;;;;1.73;0.40;;;;;;;-140.72;0.00;52090.56;5064320;28;20025;-69
2022/08/30 10:08:50;;;;;;;1.65;0.40;;;;;;;-140.72;0.00;52078.38;5060797;28;20079;-69
2022/08/30 10:11:26;;;;;;;1.25;0.20;;;;;;;-140.72;0.00;52098.69;5064713;28;20028;-68
2022/08/30 10:14:16;;;;;;;1.45;0.40;;;;;;;-140.72;0.00;52037.81;5059139;28;20041;-69
2022/08/30 10:16:59;;;;;;;0.90;0.50;;;;;;;-140.72;0.00;52078.38;5071010;28;20036;-68
2022/08/30 10:19:42;;;;;;;0.65;0.20;;;;;;;-140.72;0.00;52054.03;5065106;28;20103;-68
2022/08/30 10:22:36;;;;;;;1.25;0.40;;;;;;;-140.72;0.00;52047.97;5064593;28;20029;-68
2022/08/30 10:25:13;;;;;;;1.50;0.50;;;;;;;-140.72;0.00;52060.13;5069709;28;20033;-69
2022/08/30 10:27:58;;;;;;;1.60;0.47;;;;;;;-140.72;0.00;52062.16;5064546;28;20101;-67
2022/08/30 10:30:26;;;;;;;2.10;0.55;;;;;;;-140.72;0.00;52037.81;5025584;28;20040;-68
2022/08/30 10:33:05;;;;;;;1.10;0.40;;;;;;;-140.72;0.00;52054.03;5062447;28;20159;-67
2022/08/30 10:35:43;;;;;;;0.43;0.20;;;;;;;-140.72;0.00;52049.97;5061855;28;20448;-68
2022/08/30 10:38:23;;;;;;;1.27;0.30;;;;;;;-140.72;0.00;52019.56;5068014;28;20048;-67
2022/08/30 10:41:13;;;;;;;1.38;0.22;;;;;;;-140.72;0.00;51978.97;5056714;28;20078;-66
2022/08/30 10:43:49;;;;;;;0.30;0.10;;;;;;;-140.72;0.00;51942.44;5067963;28;20025;-68
2022/08/30 10:46:28;;;;;;;1.00;0.40;;;;;;;-140.72;0.00;51944.47;5068970;28;20033;-70
2022/08/30 10:48:55;;;;;;;1.27;0.40;;;;;;;-140.72;0.00;51970.84;5058515;28;20280;-68
2022/08/30 10:51:25;;;;;;;0.85;0.30;;;;;;;-140.72;0.00;51970.84;5064057;28;20059;-70
2022/08/30 10:53:55;;;;;;;0.95;0.30;;;;;;;-140.72;0.00;51907.97;5062185;28;20024;-69
2022/08/30 10:56:25;;;;;;;0.80;0.20;;;;;;;-140.72;0.00;51901.88;5062223;28;20048;-69
2022/08/30 10:58:53;;;;;;;;;;;;;;;-140.72;0.00;51907.97;5070388;28;20377;-67
2022/08/30 11:01:41;;;;;;;0.77;0.30;;;;;;;-140.72;0.00;51879.56;5067820;28;20380;-68
2022/08/30 11:04:38;;;;;;;0.63;0.20;;;;;;;-140.72;0.00;51879.56;5068738;28;20062;-66
2022/08/30 11:07:16;;;;;;;0.95;0.20;;;;;;;-140.72;0.00;51838.97;5066275;28;20112;-66
2022/08/30 11:10:11;;;;;;;0.60;0.22;;;;;;;-140.72;0.00;51822.75;5070330;28;20040;-66
2022/08/30 11:13:07;;;;;;;0.25;0.20;;;;;;;-140.72;0.00;51877.53;5069261;28;20106;-66
2022/08/30 11:15:53;;;;;;;0.57;0.20;;;;;;;-140.72;0.00;51867.38;5065279;28;20114;-66
2022/08/30 11:18:19;;;;;;;0.77;0.28;;;;;;;-140.72;0.00;51828.84;5061963;28;20044;-68
2022/08/30 11:20:49;;;;;;;0.90;0.30;;;;;;;-140.72;0.00;51818.69;5064498;28;20348;-67
2022/08/30 11:23:21;;;;;;;0.82;0.20;;;;;;;-140.72;0.00;51786.22;5056558;28;20028;-69
2022/08/30 11:25:53;;;;;;;2.28;0.50;;;;;;;-140.72;0.00;51889.69;5065658;28;20036;-66